sensor_id;sensor_type;location;lat;lon;timestamp;P1;durP1;ratioP1;P2;durP2;ratioP2
44026;SDS011;29696;55.698;37.460;2023-02-23T00:01:39;15.33;;;7.93;;
44026;SDS011;29696;55.698;37.460;2023-02-23T00:04:07;19.77;;;8.63;;
44026;SDS011;29696;55.698;37.460;2023-02-23T00:06:34;16.70;;;9.20;;
44026;SDS011;29696;55.698;37.460;2023-02-23T00:09:02;13.90;;;9.67;;
44026;SDS011;29696;55.698;37.460;2023-02-23T00:11:51;17.67;;;8.37;;
44026;SDS011;29696;55.698;37.460;2023-02-23T00:14:25;18.67;;;9.30;;
44026;SDS011;29696;55.698;37.460;2023-02-23T00:16:54;15.70;;;8.80;;
44026;SDS011;29696;55.698;37.460;2023-02-23T00:19:21;19.13;;;9.73;;
44026;SDS011;29696;55.698;37.460;2023-02-23T00:21:49;19.77;;;9.57;;
44026;SDS011;29696;55.698;37.460;2023-02-23T00:24:16;18.57;;;9.33;;
44026;SDS011;29696;55.698;37.460;2023-02-23T00:26:46;23.70;;;9.70;;
44026;SDS011;29696;55.698;37.460;2023-02-23T00:29:14;15.67;;;8.67;;
44026;SDS011;29696;55.698;37.460;2023-02-23T00:31:43;21.27;;;8.73;;
44026;SDS011;29696;55.698;37.460;2023-02-23T00:34:10;15.47;;;8.10;;
44026;SDS011;29696;55.698;37.460;2023-02-23T00:36:38;12.70;;;7.83;;
44026;SDS011;29696;55.698;37.460;2023-02-23T00:39:06;16.10;;;8.00;;
44026;SDS011;29696;55.698;37.460;2023-02-23T00:41:54;11.63;;;7.80;;
44026;SDS011;29696;55.698;37.460;2023-02-23T00:44:22;12.53;;;7.67;;
44026;SDS011;29696;55.698;37.460;2023-02-23T00:46:49;12.27;;;7.10;;
44026;SDS011;29696;55.698;37.460;2023-02-23T00:49:16;16.43;;;9.37;;
44026;SDS011;29696;55.698;37.460;2023-02-23T00:51:43;15.20;;;9.23;;
44026;SDS011;29696;55.698;37.460;2023-02-23T00:54:11;13.97;;;8.30;;
44026;SDS011;29696;55.698;37.460;2023-02-23T00:56:38;16.50;;;7.80;;
44026;SDS011;29696;55.698;37.460;2023-02-23T00:59:05;15.17;;;6.87;;
44026;SDS011;29696;55.698;37.460;2023-02-23T01:01:32;13.53;;;7.50;;
44026;SDS011;29696;55.698;37.460;2023-02-23T01:03:59;10.67;;;6.40;;
44026;SDS011;29696;55.698;37.460;2023-02-23T01:06:26;11.60;;;6.90;;
44026;SDS011;29696;55.698;37.460;2023-02-23T01:08:53;13.67;;;7.83;;
44026;SDS011;29696;55.698;37.460;2023-02-23T01:11:22;11.93;;;7.97;;
44026;SDS011;29696;55.698;37.460;2023-02-23T01:13:56;13.05;;;7.03;;
44026;SDS011;29696;55.698;37.460;2023-02-23T01:16:25;13.20;;;6.90;;
44026;SDS011;29696;55.698;37.460;2023-02-23T01:18:55;17.57;;;7.90;;
44026;SDS011;29696;55.698;37.460;2023-02-23T01:21:25;10.07;;;7.07;;
44026;SDS011;29696;55.698;37.460;2023-02-23T01:23:53;11.50;;;8.23;;
44026;SDS011;29696;55.698;37.460;2023-02-23T01:29:09;18.43;;;6.87;;
44026;SDS011;29696;55.698;37.460;2023-02-23T01:31:43;12.20;;;7.97;;
44026;SDS011;29696;55.698;37.460;2023-02-23T01:34:15;10.50;;;6.57;;
44026;SDS011;29696;55.698;37.460;2023-02-23T01:36:44;13.97;;;7.40;;
44026;SDS011;29696;55.698;37.460;2023-02-23T01:39:12;10.00;;;7.10;;
44026;SDS011;29696;55.698;37.460;2023-02-23T01:41:42;16.27;;;7.93;;
44026;SDS011;29696;55.698;37.460;2023-02-23T01:47:19;17.73;;;8.07;;
44026;SDS011;29696;55.698;37.460;2023-02-23T01:49:45;13.60;;;7.30;;
44026;SDS011;29696;55.698;37.460;2023-02-23T01:52:12;11.37;;;6.53;;
44026;SDS011;29696;55.698;37.460;2023-02-23T01:54:43;12.93;;;7.13;;
44026;SDS011;29696;55.698;37.460;2023-02-23T01:57:15;14.07;;;7.63;;
44026;SDS011;29696;55.698;37.460;2023-02-23T01:59:43;11.40;;;6.57;;
44026;SDS011;29696;55.698;37.460;2023-02-23T02:02:11;13.87;;;6.87;;
44026;SDS011;29696;55.698;37.460;2023-02-23T02:04:39;12.40;;;7.63;;
44026;SDS011;29696;55.698;37.460;2023-02-23T02:07:17;11.23;;;7.40;;
44026;SDS011;29696;55.698;37.460;2023-02-23T02:09:48;16.40;;;6.57;;
44026;SDS011;29696;55.698;37.460;2023-02-23T02:12:53;11.30;;;8.07;;
44026;SDS011;29696;55.698;37.460;2023-02-23T02:15:22;12.53;;;8.10;;
44026;SDS011;29696;55.698;37.460;2023-02-23T02:18:03;16.47;;;8.63;;
44026;SDS011;29696;55.698;37.460;2023-02-23T02:27:26;12.90;;;7.03;;
44026;SDS011;29696;55.698;37.460;2023-02-23T02:37:08;13.40;;;6.70;;
44026;SDS011;29696;55.698;37.460;2023-02-23T02:39:48;18.13;;;7.57;;
44026;SDS011;29696;55.698;37.460;2023-02-23T02:42:58;11.73;;;7.30;;
44026;SDS011;29696;55.698;37.460;2023-02-23T02:45:53;11.83;;;6.30;;
44026;SDS011;29696;55.698;37.460;2023-02-23T02:57:29;13.10;;;6.33;;
44026;SDS011;29696;55.698;37.460;2023-02-23T02:59:58;10.10;;;6.37;;
44026;SDS011;29696;55.698;37.460;2023-02-23T03:02:42;17.27;;;8.65;;
44026;SDS011;29696;55.698;37.460;2023-02-23T03:05:33;14.67;;;8.10;;
44026;SDS011;29696;55.698;37.460;2023-02-23T03:08:49;12.83;;;7.07;;
44026;SDS011;29696;55.698;37.460;2023-02-23T03:11:46;13.53;;;6.27;;
44026;SDS011;29696;55.698;37.460;2023-02-23T03:14:48;14.63;;;7.70;;
44026;SDS011;29696;55.698;37.460;2023-02-23T03:21:50;15.20;;;6.73;;
44026;SDS011;29696;55.698;37.460;2023-02-23T03:24:44;13.97;;;7.43;;
44026;SDS011;29696;55.698;37.460;2023-02-23T03:46:01;18.20;;;8.53;;
44026;SDS011;29696;55.698;37.460;2023-02-23T03:48:48;12.97;;;7.37;;
44026;SDS011;29696;55.698;37.460;2023-02-23T03:51:36;15.67;;;8.70;;
44026;SDS011;29696;55.698;37.460;2023-02-23T03:54:35;12.87;;;6.37;;
44026;SDS011;29696;55.698;37.460;2023-02-23T03:57:25;11.60;;;7.07;;
44026;SDS011;29696;55.698;37.460;2023-02-23T04:00:15;13.93;;;7.43;;
44026;SDS011;29696;55.698;37.460;2023-02-23T04:03:05;10.63;;;6.17;;
44026;SDS011;29696;55.698;37.460;2023-02-23T04:05:54;8.97;;;5.47;;
44026;SDS011;29696;55.698;37.460;2023-02-23T04:08:41;15.20;;;6.50;;
44026;SDS011;29696;55.698;37.460;2023-02-23T04:14:40;11.63;;;8.07;;
44026;SDS011;29696;55.698;37.460;2023-02-23T04:17:13;16.33;;;7.93;;
44026;SDS011;29696;55.698;37.460;2023-02-23T04:19:51;12.60;;;7.93;;
44026;SDS011;29696;55.698;37.460;2023-02-23T04:22:19;14.30;;;8.47;;
44026;SDS011;29696;55.698;37.460;2023-02-23T04:24:46;14.13;;;8.00;;
44026;SDS011;29696;55.698;37.460;2023-02-23T04:27:13;14.07;;;6.80;;
44026;SDS011;29696;55.698;37.460;2023-02-23T04:29:40;16.13;;;6.63;;
44026;SDS011;29696;55.698;37.460;2023-02-23T04:32:08;12.17;;;6.77;;
44026;SDS011;29696;55.698;37.460;2023-02-23T04:34:38;13.37;;;7.30;;
44026;SDS011;29696;55.698;37.460;2023-02-23T04:37:04;16.07;;;8.20;;
44026;SDS011;29696;55.698;37.460;2023-02-23T04:39:31;14.07;;;6.90;;
44026;SDS011;29696;55.698;37.460;2023-02-23T04:41:57;12.07;;;7.07;;
44026;SDS011;29696;55.698;37.460;2023-02-23T04:44:23;13.53;;;7.53;;
44026;SDS011;29696;55.698;37.460;2023-02-23T04:46:50;14.93;;;7.93;;
44026;SDS011;29696;55.698;37.460;2023-02-23T04:49:16;10.83;;;6.53;;
44026;SDS011;29696;55.698;37.460;2023-02-23T04:51:42;12.37;;;6.83;;
44026;SDS011;29696;55.698;37.460;2023-02-23T04:54:09;14.47;;;8.20;;
44026;SDS011;29696;55.698;37.460;2023-02-23T04:56:35;20.77;;;9.63;;
44026;SDS011;29696;55.698;37.460;2023-02-23T04:59:01;15.83;;;8.67;;
44026;SDS011;29696;55.698;37.460;2023-02-23T05:01:28;15.57;;;10.33;;
44026;SDS011;29696;55.698;37.460;2023-02-23T05:03:55;15.77;;;7.67;;
44026;SDS011;29696;55.698;37.460;2023-02-23T05:06:21;13.73;;;8.37;;
44026;SDS011;29696;55.698;37.460;2023-02-23T05:08:47;12.63;;;7.37;;
44026;SDS011;29696;55.698;37.460;2023-02-23T05:11:14;14.83;;;7.60;;
44026;SDS011;29696;55.698;37.460;2023-02-23T05:13:40;13.40;;;8.00;;
44026;SDS011;29696;55.698;37.460;2023-02-23T05:16:07;15.80;;;8.77;;
44026;SDS011;29696;55.698;37.460;2023-02-23T05:18:33;17.40;;;9.73;;
44026;SDS011;29696;55.698;37.460;2023-02-23T05:21:00;39.67;;;15.03;;
44026;SDS011;29696;55.698;37.460;2023-02-23T05:23:28;28.07;;;17.07;;
44026;SDS011;29696;55.698;37.460;2023-02-23T05:25:58;26.50;;;18.03;;
44026;SDS011;29696;55.698;37.460;2023-02-23T05:28:26;38.07;;;17.13;;
44026;SDS011;29696;55.698;37.460;2023-02-23T05:30:52;29.30;;;15.87;;
44026;SDS011;29696;55.698;37.460;2023-02-23T05:33:18;25.67;;;16.33;;
44026;SDS011;29696;55.698;37.460;2023-02-23T05:35:47;28.70;;;19.80;;
44026;SDS011;29696;55.698;37.460;2023-02-23T05:38:13;29.43;;;17.10;;
44026;SDS011;29696;55.698;37.460;2023-02-23T05:40:39;26.70;;;16.03;;
44026;SDS011;29696;55.698;37.460;2023-02-23T05:43:06;17.97;;;13.07;;
44026;SDS011;29696;55.698;37.460;2023-02-23T05:45:33;23.10;;;13.57;;
44026;SDS011;29696;55.698;37.460;2023-02-23T05:47:59;18.07;;;12.33;;
44026;SDS011;29696;55.698;37.460;2023-02-23T05:50:25;16.37;;;10.17;;
44026;SDS011;29696;55.698;37.460;2023-02-23T05:52:52;13.93;;;11.07;;
44026;SDS011;29696;55.698;37.460;2023-02-23T05:55:18;10.77;;;8.83;;
44026;SDS011;29696;55.698;37.460;2023-02-23T05:57:45;12.37;;;10.47;;
44026;SDS011;29696;55.698;37.460;2023-02-23T06:00:11;12.87;;;8.63;;
44026;SDS011;29696;55.698;37.460;2023-02-23T06:02:39;12.47;;;8.60;;
44026;SDS011;29696;55.698;37.460;2023-02-23T06:05:07;11.97;;;7.67;;
44026;SDS011;29696;55.698;37.460;2023-02-23T06:07:34;14.23;;;8.30;;
44026;SDS011;29696;55.698;37.460;2023-02-23T06:10:00;14.03;;;8.73;;
44026;SDS011;29696;55.698;37.460;2023-02-23T06:12:26;13.33;;;8.60;;
44026;SDS011;29696;55.698;37.460;2023-02-23T06:14:52;14.27;;;8.23;;
44026;SDS011;29696;55.698;37.460;2023-02-23T06:17:19;12.50;;;9.00;;
44026;SDS011;29696;55.698;37.460;2023-02-23T06:19:45;17.33;;;9.10;;
44026;SDS011;29696;55.698;37.460;2023-02-23T06:22:12;16.93;;;7.60;;
44026;SDS011;29696;55.698;37.460;2023-02-23T06:24:38;13.40;;;8.30;;
44026;SDS011;29696;55.698;37.460;2023-02-23T06:27:05;9.20;;;6.47;;
44026;SDS011;29696;55.698;37.460;2023-02-23T06:29:32;11.50;;;6.93;;
44026;SDS011;29696;55.698;37.460;2023-02-23T06:31:58;10.40;;;6.97;;
44026;SDS011;29696;55.698;37.460;2023-02-23T06:34:24;10.07;;;7.73;;
44026;SDS011;29696;55.698;37.460;2023-02-23T06:36:51;15.03;;;8.03;;
44026;SDS011;29696;55.698;37.460;2023-02-23T06:39:17;11.53;;;7.20;;
44026;SDS011;29696;55.698;37.460;2023-02-23T06:41:44;14.67;;;9.10;;
44026;SDS011;29696;55.698;37.460;2023-02-23T06:44:10;15.23;;;8.00;;
44026;SDS011;29696;55.698;37.460;2023-02-23T06:46:36;10.80;;;6.97;;
44026;SDS011;29696;55.698;37.460;2023-02-23T06:49:03;15.73;;;8.17;;
44026;SDS011;29696;55.698;37.460;2023-02-23T06:51:29;13.33;;;7.63;;
44026;SDS011;29696;55.698;37.460;2023-02-23T06:53:56;11.73;;;8.40;;
44026;SDS011;29696;55.698;37.460;2023-02-23T06:56:22;12.60;;;8.50;;
44026;SDS011;29696;55.698;37.460;2023-02-23T06:58:49;11.37;;;8.13;;
44026;SDS011;29696;55.698;37.460;2023-02-23T07:01:16;12.23;;;7.37;;
44026;SDS011;29696;55.698;37.460;2023-02-23T07:03:44;9.87;;;6.17;;
44026;SDS011;29696;55.698;37.460;2023-02-23T07:06:10;9.03;;;7.30;;
44026;SDS011;29696;55.698;37.460;2023-02-23T07:08:36;12.63;;;6.93;;
44026;SDS011;29696;55.698;37.460;2023-02-23T07:11:04;9.63;;;6.60;;
44026;SDS011;29696;55.698;37.460;2023-02-23T07:13:34;10.33;;;8.03;;
44026;SDS011;29696;55.698;37.460;2023-02-23T07:16:01;11.97;;;7.73;;
44026;SDS011;29696;55.698;37.460;2023-02-23T07:18:28;11.90;;;8.83;;
44026;SDS011;29696;55.698;37.460;2023-02-23T07:20:54;6.73;;;5.90;;
44026;SDS011;29696;55.698;37.460;2023-02-23T07:23:20;9.43;;;7.37;;
44026;SDS011;29696;55.698;37.460;2023-02-23T07:25:51;10.77;;;7.00;;
44026;SDS011;29696;55.698;37.460;2023-02-23T07:28:18;9.13;;;7.07;;
44026;SDS011;29696;55.698;37.460;2023-02-23T07:30:46;15.97;;;8.33;;
44026;SDS011;29696;55.698;37.460;2023-02-23T07:33:15;12.40;;;8.03;;
44026;SDS011;29696;55.698;37.460;2023-02-23T07:35:41;12.47;;;6.67;;
44026;SDS011;29696;55.698;37.460;2023-02-23T07:38:09;10.87;;;7.07;;
44026;SDS011;29696;55.698;37.460;2023-02-23T07:40:36;9.57;;;7.00;;
44026;SDS011;29696;55.698;37.460;2023-02-23T07:43:02;13.10;;;6.80;;
44026;SDS011;29696;55.698;37.460;2023-02-23T07:45:28;10.00;;;6.47;;
44026;SDS011;29696;55.698;37.460;2023-02-23T07:47:55;9.57;;;6.60;;
44026;SDS011;29696;55.698;37.460;2023-02-23T07:50:21;8.60;;;5.77;;
44026;SDS011;29696;55.698;37.460;2023-02-23T07:52:47;8.83;;;6.07;;
44026;SDS011;29696;55.698;37.460;2023-02-23T07:55:15;9.77;;;6.00;;
44026;SDS011;29696;55.698;37.460;2023-02-23T07:57:42;11.23;;;6.77;;
44026;SDS011;29696;55.698;37.460;2023-02-23T08:00:09;8.70;;;7.00;;
44026;SDS011;29696;55.698;37.460;2023-02-23T08:02:39;9.70;;;7.10;;
44026;SDS011;29696;55.698;37.460;2023-02-23T08:05:05;7.93;;;6.47;;
44026;SDS011;29696;55.698;37.460;2023-02-23T08:07:32;29.43;;;7.13;;
44026;SDS011;29696;55.698;37.460;2023-02-23T08:09:59;9.57;;;6.97;;
44026;SDS011;29696;55.698;37.460;2023-02-23T08:12:25;8.93;;;7.10;;
44026;SDS011;29696;55.698;37.460;2023-02-23T08:14:51;8.13;;;6.33;;
44026;SDS011;29696;55.698;37.460;2023-02-23T08:17:19;7.47;;;6.43;;
44026;SDS011;29696;55.698;37.460;2023-02-23T08:19:45;9.77;;;6.57;;
44026;SDS011;29696;55.698;37.460;2023-02-23T08:22:11;12.87;;;7.40;;
44026;SDS011;29696;55.698;37.460;2023-02-23T08:24:38;11.83;;;6.87;;
44026;SDS011;29696;55.698;37.460;2023-02-23T08:27:04;9.23;;;5.90;;
44026;SDS011;29696;55.698;37.460;2023-02-23T08:29:30;9.70;;;7.03;;
44026;SDS011;29696;55.698;37.460;2023-02-23T08:31:59;8.33;;;6.57;;
44026;SDS011;29696;55.698;37.460;2023-02-23T08:34:27;9.93;;;6.17;;
44026;SDS011;29696;55.698;37.460;2023-02-23T08:36:54;10.53;;;6.57;;
44026;SDS011;29696;55.698;37.460;2023-02-23T08:39:20;11.17;;;7.07;;
44026;SDS011;29696;55.698;37.460;2023-02-23T08:41:46;9.87;;;6.37;;
44026;SDS011;29696;55.698;37.460;2023-02-23T08:44:13;17.47;;;6.10;;
44026;SDS011;29696;55.698;37.460;2023-02-23T08:46:39;12.23;;;5.53;;
44026;SDS011;29696;55.698;37.460;2023-02-23T08:49:06;14.67;;;7.00;;
44026;SDS011;29696;55.698;37.460;2023-02-23T08:51:35;9.83;;;6.67;;
44026;SDS011;29696;55.698;37.460;2023-02-23T08:54:01;17.97;;;6.50;;
44026;SDS011;29696;55.698;37.460;2023-02-23T08:56:28;6.97;;;5.23;;
44026;SDS011;29696;55.698;37.460;2023-02-23T08:58:55;8.73;;;5.70;;
44026;SDS011;29696;55.698;37.460;2023-02-23T09:01:21;12.10;;;6.40;;
44026;SDS011;29696;55.698;37.460;2023-02-23T09:03:48;14.53;;;7.07;;
44026;SDS011;29696;55.698;37.460;2023-02-23T09:06:16;11.43;;;6.70;;
44026;SDS011;29696;55.698;37.460;2023-02-23T09:08:45;11.67;;;6.60;;
44026;SDS011;29696;55.698;37.460;2023-02-23T09:11:11;12.13;;;6.70;;
44026;SDS011;29696;55.698;37.460;2023-02-23T09:13:37;12.37;;;7.00;;
44026;SDS011;29696;55.698;37.460;2023-02-23T09:16:04;8.87;;;5.37;;
44026;SDS011;29696;55.698;37.460;2023-02-23T09:18:32;14.10;;;6.63;;
44026;SDS011;29696;55.698;37.460;2023-02-23T09:21:00;16.00;;;8.50;;
44026;SDS011;29696;55.698;37.460;2023-02-23T09:23:32;15.40;;;7.30;;
44026;SDS011;29696;55.698;37.460;2023-02-23T09:26:05;9.83;;;6.23;;
44026;SDS011;29696;55.698;37.460;2023-02-23T09:28:33;9.38;;;5.88;;
44026;SDS011;29696;55.698;37.460;2023-02-23T09:31:04;9.23;;;6.10;;
44026;SDS011;29696;55.698;37.460;2023-02-23T09:33:31;10.93;;;6.53;;
44026;SDS011;29696;55.698;37.460;2023-02-23T09:35:57;12.50;;;7.13;;
44026;SDS011;29696;55.698;37.460;2023-02-23T09:38:24;8.40;;;5.90;;
44026;SDS011;29696;55.698;37.460;2023-02-23T09:40:51;10.97;;;6.57;;
44026;SDS011;29696;55.698;37.460;2023-02-23T09:49:43;11.70;;;6.13;;
44026;SDS011;29696;55.698;37.460;2023-02-23T09:52:17;9.70;;;6.07;;
44026;SDS011;29696;55.698;37.460;2023-02-23T09:54:49;11.80;;;6.83;;
44026;SDS011;29696;55.698;37.460;2023-02-23T09:57:21;8.67;;;6.13;;
44026;SDS011;29696;55.698;37.460;2023-02-23T09:59:54;17.00;;;7.50;;
44026;SDS011;29696;55.698;37.460;2023-02-23T10:02:26;11.77;;;6.57;;
44026;SDS011;29696;55.698;37.460;2023-02-23T10:05:03;14.47;;;6.73;;
44026;SDS011;29696;55.698;37.460;2023-02-23T10:07:44;11.40;;;7.33;;
44026;SDS011;29696;55.698;37.460;2023-02-23T10:10:23;11.13;;;6.17;;
44026;SDS011;29696;55.698;37.460;2023-02-23T10:19:52;13.53;;;5.63;;
44026;SDS011;29696;55.698;37.460;2023-02-23T10:22:26;12.43;;;5.90;;
44026;SDS011;29696;55.698;37.460;2023-02-23T10:25:01;7.50;;;5.10;;
44026;SDS011;29696;55.698;37.460;2023-02-23T10:27:37;9.40;;;6.87;;
44026;SDS011;29696;55.698;37.460;2023-02-23T10:30:22;10.25;;;6.15;;
44026;SDS011;29696;55.698;37.460;2023-02-23T10:32:53;9.55;;;5.72;;
44026;SDS011;29696;55.698;37.460;2023-02-23T10:35:44;7.40;;;5.50;;
44026;SDS011;29696;55.698;37.460;2023-02-23T10:38:15;12.70;;;5.93;;
44026;SDS011;29696;55.698;37.460;2023-02-23T10:40:44;9.17;;;5.80;;
44026;SDS011;29696;55.698;37.460;2023-02-23T10:43:14;8.63;;;6.70;;
44026;SDS011;29696;55.698;37.460;2023-02-23T10:45:48;10.20;;;5.63;;
44026;SDS011;29696;55.698;37.460;2023-02-23T10:48:17;8.07;;;4.93;;
44026;SDS011;29696;55.698;37.460;2023-02-23T10:51:16;12.10;;;8.60;;
44026;SDS011;29696;55.698;37.460;2023-02-23T10:53:52;13.77;;;8.07;;
44026;SDS011;29696;55.698;37.460;2023-02-23T10:56:19;8.20;;;6.10;;
44026;SDS011;29696;55.698;37.460;2023-02-23T10:58:48;8.73;;;5.80;;
44026;SDS011;29696;55.698;37.460;2023-02-23T11:01:37;11.60;;;5.50;;
44026;SDS011;29696;55.698;37.460;2023-02-23T11:10:19;9.60;;;5.83;;
44026;SDS011;29696;55.698;37.460;2023-02-23T11:12:54;12.63;;;8.57;;
44026;SDS011;29696;55.698;37.460;2023-02-23T11:18:17;8.43;;;5.90;;
44026;SDS011;29696;55.698;37.460;2023-02-23T11:20:47;11.47;;;6.17;;
44026;SDS011;29696;55.698;37.460;2023-02-23T11:23:17;12.03;;;6.53;;
44026;SDS011;29696;55.698;37.460;2023-02-23T11:26:00;13.43;;;7.40;;
44026;SDS011;29696;55.698;37.460;2023-02-23T11:28:32;14.13;;;7.23;;
44026;SDS011;29696;55.698;37.460;2023-02-23T11:31:09;8.67;;;6.30;;
44026;SDS011;29696;55.698;37.460;2023-02-23T11:33:44;11.10;;;6.40;;
44026;SDS011;29696;55.698;37.460;2023-02-23T11:42:04;12.70;;;6.93;;
44026;SDS011;29696;55.698;37.460;2023-02-23T11:44:40;13.27;;;6.60;;
44026;SDS011;29696;55.698;37.460;2023-02-23T11:47:12;8.80;;;6.40;;
44026;SDS011;29696;55.698;37.460;2023-02-23T11:49:42;11.93;;;7.30;;
44026;SDS011;29696;55.698;37.460;2023-02-23T11:52:14;8.83;;;6.47;;
44026;SDS011;29696;55.698;37.460;2023-02-23T11:54:50;22.00;;;7.37;;
44026;SDS011;29696;55.698;37.460;2023-02-23T11:57:31;13.63;;;6.37;;
44026;SDS011;29696;55.698;37.460;2023-02-23T12:00:22;8.37;;;5.07;;
44026;SDS011;29696;55.698;37.460;2023-02-23T12:02:56;12.80;;;4.87;;
44026;SDS011;29696;55.698;37.460;2023-02-23T12:05:30;12.93;;;5.13;;
44026;SDS011;29696;55.698;37.460;2023-02-23T12:08:16;11.30;;;5.93;;
44026;SDS011;29696;55.698;37.460;2023-02-23T12:10:56;8.50;;;5.50;;
44026;SDS011;29696;55.698;37.460;2023-02-23T12:16:31;16.10;;;6.33;;
44026;SDS011;29696;55.698;37.460;2023-02-23T12:19:19;9.17;;;4.73;;
44026;SDS011;29696;55.698;37.460;2023-02-23T12:31:48;8.57;;;4.78;;
44026;SDS011;29696;55.698;37.460;2023-02-23T12:34:22;10.63;;;5.70;;
44026;SDS011;29696;55.698;37.460;2023-02-23T12:37:01;12.93;;;6.17;;
44026;SDS011;29696;55.698;37.460;2023-02-23T12:39:39;9.70;;;6.50;;
44026;SDS011;29696;55.698;37.460;2023-02-23T12:42:17;9.73;;;7.30;;
44026;SDS011;29696;55.698;37.460;2023-02-23T12:45:17;6.83;;;5.10;;
44026;SDS011;29696;55.698;37.460;2023-02-23T12:47:51;9.50;;;5.30;;
44026;SDS011;29696;55.698;37.460;2023-02-23T12:56:40;7.90;;;5.20;;
44026;SDS011;29696;55.698;37.460;2023-02-23T13:06:51;7.97;;;4.73;;
44026;SDS011;29696;55.698;37.460;2023-02-23T13:12:39;12.53;;;6.07;;
44026;SDS011;29696;55.698;37.460;2023-02-23T13:15:26;13.63;;;7.00;;
44026;SDS011;29696;55.698;37.460;2023-02-23T13:18:17;10.40;;;5.70;;
44026;SDS011;29696;55.698;37.460;2023-02-23T13:23:53;11.70;;;5.33;;
44026;SDS011;29696;55.698;37.460;2023-02-23T13:30:02;13.67;;;6.30;;
44026;SDS011;29696;55.698;37.460;2023-02-23T13:32:31;10.93;;;7.13;;
44026;SDS011;29696;55.698;37.460;2023-02-23T13:35:00;11.33;;;5.87;;
44026;SDS011;29696;55.698;37.460;2023-02-23T13:37:40;19.00;;;6.93;;
44026;SDS011;29696;55.698;37.460;2023-02-23T13:43:20;13.77;;;6.10;;
44026;SDS011;29696;55.698;37.460;2023-02-23T13:51:50;17.30;;;6.20;;
44026;SDS011;29696;55.698;37.460;2023-02-23T13:54:24;8.57;;;5.47;;
44026;SDS011;29696;55.698;37.460;2023-02-23T13:56:58;9.50;;;6.17;;
44026;SDS011;29696;55.698;37.460;2023-02-23T13:59:27;12.30;;;8.00;;
44026;SDS011;29696;55.698;37.460;2023-02-23T14:01:55;9.40;;;6.43;;
44026;SDS011;29696;55.698;37.460;2023-02-23T14:04:26;12.83;;;5.63;;
44026;SDS011;29696;55.698;37.460;2023-02-23T14:09:57;7.33;;;4.93;;
44026;SDS011;29696;55.698;37.460;2023-02-23T14:12:40;10.87;;;6.70;;
44026;SDS011;29696;55.698;37.460;2023-02-23T14:18:55;12.83;;;5.70;;
44026;SDS011;29696;55.698;37.460;2023-02-23T14:24:31;9.10;;;5.67;;
44026;SDS011;29696;55.698;37.460;2023-02-23T14:30:31;11.97;;;6.43;;
44026;SDS011;29696;55.698;37.460;2023-02-23T14:32:45;12.10;;;7.10;;
44026;SDS011;29696;55.698;37.460;2023-02-23T14:38:25;11.65;;;5.88;;
44026;SDS011;29696;55.698;37.460;2023-02-23T14:40:59;7.73;;;5.20;;
44026;SDS011;29696;55.698;37.460;2023-02-23T14:43:32;11.20;;;7.60;;
44026;SDS011;29696;55.698;37.460;2023-02-23T14:46:16;12.50;;;5.73;;
44026;SDS011;29696;55.698;37.460;2023-02-23T14:48:59;9.73;;;6.03;;
44026;SDS011;29696;55.698;37.460;2023-02-23T14:51:30;6.30;;;5.63;;
44026;SDS011;29696;55.698;37.460;2023-02-23T14:54:10;13.23;;;6.10;;
44026;SDS011;29696;55.698;37.460;2023-02-23T14:56:47;10.97;;;5.50;;
44026;SDS011;29696;55.698;37.460;2023-02-23T14:59:17;10.17;;;5.70;;
44026;SDS011;29696;55.698;37.460;2023-02-23T15:01:46;9.53;;;5.67;;
44026;SDS011;29696;55.698;37.460;2023-02-23T15:04:16;10.37;;;5.23;;
44026;SDS011;29696;55.698;37.460;2023-02-23T15:06:47;17.15;;;6.93;;
44026;SDS011;29696;55.698;37.460;2023-02-23T15:09:18;11.77;;;4.93;;
44026;SDS011;29696;55.698;37.460;2023-02-23T15:11:49;12.03;;;5.83;;
44026;SDS011;29696;55.698;37.460;2023-02-23T15:14:18;8.37;;;5.53;;
44026;SDS011;29696;55.698;37.460;2023-02-23T15:16:45;8.17;;;5.83;;
44026;SDS011;29696;55.698;37.460;2023-02-23T15:19:17;10.97;;;6.20;;
44026;SDS011;29696;55.698;37.460;2023-02-23T15:21:49;6.03;;;5.43;;
44026;SDS011;29696;55.698;37.460;2023-02-23T15:24:20;7.43;;;5.37;;
44026;SDS011;29696;55.698;37.460;2023-02-23T15:26:49;10.03;;;6.63;;
44026;SDS011;29696;55.698;37.460;2023-02-23T15:29:17;8.90;;;5.97;;
44026;SDS011;29696;55.698;37.460;2023-02-23T15:31:47;8.60;;;5.57;;
44026;SDS011;29696;55.698;37.460;2023-02-23T15:34:17;11.63;;;6.10;;
44026;SDS011;29696;55.698;37.460;2023-02-23T15:36:47;11.03;;;5.13;;
44026;SDS011;29696;55.698;37.460;2023-02-23T15:42:40;11.23;;;4.97;;
44026;SDS011;29696;55.698;37.460;2023-02-23T15:45:18;9.40;;;5.97;;
44026;SDS011;29696;55.698;37.460;2023-02-23T15:48:12;6.43;;;4.43;;
44026;SDS011;29696;55.698;37.460;2023-02-23T15:50:44;9.37;;;6.10;;
44026;SDS011;29696;55.698;37.460;2023-02-23T15:53:33;8.02;;;5.07;;
44026;SDS011;29696;55.698;37.460;2023-02-23T15:58:37;8.90;;;4.63;;
44026;SDS011;29696;55.698;37.460;2023-02-23T16:01:10;12.70;;;5.97;;
44026;SDS011;29696;55.698;37.460;2023-02-23T16:03:45;9.60;;;5.77;;
44026;SDS011;29696;55.698;37.460;2023-02-23T16:12:13;11.83;;;5.63;;
44026;SDS011;29696;55.698;37.460;2023-02-23T16:14:57;10.80;;;7.53;;
44026;SDS011;29696;55.698;37.460;2023-02-23T16:20:16;8.90;;;6.43;;
44026;SDS011;29696;55.698;37.460;2023-02-23T16:23:39;13.70;;;5.53;;
44026;SDS011;29696;55.698;37.460;2023-02-23T16:26:09;9.63;;;6.07;;
44026;SDS011;29696;55.698;37.460;2023-02-23T16:28:44;11.30;;;5.23;;
44026;SDS011;29696;55.698;37.460;2023-02-23T16:31:11;9.37;;;5.10;;
44026;SDS011;29696;55.698;37.460;2023-02-23T16:33:49;9.70;;;5.87;;
44026;SDS011;29696;55.698;37.460;2023-02-23T16:36:33;14.23;;;7.27;;
44026;SDS011;29696;55.698;37.460;2023-02-23T16:39:10;9.20;;;6.00;;
44026;SDS011;29696;55.698;37.460;2023-02-23T16:41:38;20.77;;;8.53;;
44026;SDS011;29696;55.698;37.460;2023-02-23T16:44:05;13.43;;;8.37;;
44026;SDS011;29696;55.698;37.460;2023-02-23T16:46:48;11.53;;;6.63;;
44026;SDS011;29696;55.698;37.460;2023-02-23T16:49:39;14.53;;;6.80;;
44026;SDS011;29696;55.698;37.460;2023-02-23T16:52:11;16.70;;;8.50;;
44026;SDS011;29696;55.698;37.460;2023-02-23T16:54:41;11.00;;;5.43;;
44026;SDS011;29696;55.698;37.460;2023-02-23T16:57:23;11.93;;;6.43;;
44026;SDS011;29696;55.698;37.460;2023-02-23T16:59:51;15.07;;;7.13;;
44026;SDS011;29696;55.698;37.460;2023-02-23T17:02:20;12.67;;;7.87;;
44026;SDS011;29696;55.698;37.460;2023-02-23T17:04:49;9.13;;;5.60;;
44026;SDS011;29696;55.698;37.460;2023-02-23T17:07:17;12.90;;;7.57;;
44026;SDS011;29696;55.698;37.460;2023-02-23T17:09:45;13.67;;;7.20;;
44026;SDS011;29696;55.698;37.460;2023-02-23T17:12:13;11.40;;;7.07;;
44026;SDS011;29696;55.698;37.460;2023-02-23T17:14:49;16.43;;;7.60;;
44026;SDS011;29696;55.698;37.460;2023-02-23T17:17:15;11.60;;;6.93;;
44026;SDS011;29696;55.698;37.460;2023-02-23T17:19:44;17.27;;;7.30;;
44026;SDS011;29696;55.698;37.460;2023-02-23T17:22:12;13.00;;;7.10;;
44026;SDS011;29696;55.698;37.460;2023-02-23T17:24:39;11.73;;;6.03;;
44026;SDS011;29696;55.698;37.460;2023-02-23T17:27:06;10.43;;;7.17;;
44026;SDS011;29696;55.698;37.460;2023-02-23T17:29:32;12.03;;;7.50;;
44026;SDS011;29696;55.698;37.460;2023-02-23T17:31:59;11.10;;;6.93;;